createdAt,value
2022-09-06T03:58:17.367Z,4.10
2022-09-06T03:59:17.486Z,4.20
2022-09-06T04:00:19.221Z,4.10
2022-09-06T04:01:18.769Z,3.50
2022-09-06T04:02:17.894Z,3.90
2022-09-06T04:03:19.055Z,3.70
2022-09-06T04:04:18.985Z,4.10
2022-09-06T04:05:18.245Z,4.40
2022-09-06T04:06:18.364Z,3.60
2022-09-06T04:07:18.455Z,4.20
2022-09-06T04:08:18.605Z,4.90
2022-09-06T04:09:20.328Z,3.30
2022-09-06T04:10:20.075Z,3.90
2022-09-06T04:11:19.045Z,3.90
2022-09-06T04:12:19.199Z,3.80
2022-09-06T04:13:19.344Z,3.80
2022-09-06T04:14:21.064Z,4.90
2022-09-06T04:15:19.624Z,3.60
2022-09-06T04:16:20.872Z,3.90
2022-09-06T04:17:19.887Z,4.10
2022-09-06T04:18:19.977Z,3.70
2022-09-06T04:19:21.704Z,3.80
2022-09-06T04:20:21.941Z,3.60
2022-09-06T04:21:21.665Z,4.50
2022-09-06T04:22:20.472Z,3.40
2022-09-06T04:23:21.623Z,3.80
2022-09-06T04:24:22.706Z,3.60
2022-09-06T04:25:21.883Z,3.50
2022-09-06T04:26:22.113Z,4.40
2022-09-06T04:27:21.183Z,4.00
2022-09-06T04:28:22.348Z,3.80
2022-09-06T04:29:22.403Z,3.60
2022-09-06T04:30:22.552Z,4.30
2022-09-06T04:31:22.797Z,3.80
2022-09-06T04:32:21.753Z,3.60
2022-09-06T04:33:22.863Z,3.50
2022-09-06T04:34:23.013Z,3.30
2022-09-06T04:35:23.251Z,3.40
2022-09-06T04:36:23.276Z,3.30
2022-09-06T04:37:24.021Z,3.80
2022-09-06T04:38:23.649Z,4.00
2022-09-06T04:39:24.377Z,4.00
2022-09-06T04:40:22.805Z,3.70
2022-09-06T04:41:22.929Z,3.90
2022-09-06T04:42:23.030Z,4.50
2022-09-06T04:43:24.256Z,3.80
2022-09-06T04:44:23.321Z,3.70
2022-09-06T04:45:23.433Z,3.40
2022-09-06T04:46:24.670Z,3.70
2022-09-06T04:47:23.652Z,4.10
2022-09-06T04:48:23.811Z,3.40
2022-09-06T04:49:24.991Z,3.50
2022-09-06T04:50:25.041Z,4.30
2022-09-06T04:51:24.190Z,4.20
2022-09-06T04:52:27.031Z,3.60
2022-09-06T04:53:26.429Z,3.70
2022-09-06T04:54:25.654Z,3.60
2022-09-06T04:55:25.712Z,3.40
2022-09-06T04:56:25.930Z,4.00
2022-09-06T04:57:24.901Z,4.00
2022-09-06T04:58:26.076Z,3.70
2022-09-06T04:59:25.129Z,3.60
2022-09-06T05:00:25.229Z,4.00
2022-09-06T05:01:27.023Z,3.50
2022-09-06T05:02:27.224Z,4.00
2022-09-06T05:03:25.571Z,4.00
2022-09-06T05:04:26.791Z,3.80
2022-09-06T05:05:25.829Z,4.20
2022-09-06T05:06:25.935Z,3.40
2022-09-06T05:07:27.649Z,3.60
2022-09-06T05:08:26.263Z,3.90
2022-09-06T05:09:26.331Z,4.30
2022-09-06T05:10:26.437Z,4.20
2022-09-06T05:11:28.148Z,4.70
2022-09-06T05:12:26.707Z,3.90
2022-09-06T05:13:26.839Z,4.90
2022-09-06T05:14:26.951Z,3.80
2022-09-06T05:15:27.050Z,4.80
2022-09-06T05:16:28.314Z,4.00
2022-09-06T05:17:28.488Z,4.20
2022-09-06T05:18:27.688Z,4.30
2022-09-06T05:19:27.577Z,3.80
2022-09-06T05:20:27.678Z,3.70
2022-09-06T05:21:28.898Z,4.20
2022-09-06T05:22:27.987Z,4.50
2022-09-06T05:23:29.177Z,3.80
2022-09-06T05:24:29.403Z,3.80
2022-09-06T05:25:28.437Z,3.80
2022-09-06T05:26:29.647Z,4.00
2022-09-06T05:27:30.367Z,4.00
2022-09-06T05:28:28.966Z,3.90
2022-09-06T05:29:30.717Z,4.40
2022-09-06T05:30:29.025Z,4.10
2022-09-06T05:31:30.291Z,4.60
2022-09-06T05:32:29.319Z,4.70
2022-09-06T05:33:29.399Z,4.50
2022-09-06T05:34:30.316Z,3.80
2022-09-06T05:35:30.594Z,4.10
2022-09-06T05:36:31.886Z,4.20
2022-09-06T05:37:29.915Z,4.30
2022-09-06T05:38:30.058Z,4.20
2022-09-06T05:39:32.292Z,3.90
2022-09-06T05:40:30.306Z,3.90
2022-09-06T05:41:31.179Z,4.10
2022-09-06T05:42:30.562Z,4.40
2022-09-06T05:43:30.705Z,4.20
2022-09-06T05:44:32.703Z,4.40
2022-09-06T05:45:31.080Z,4.00
2022-09-06T05:46:31.105Z,4.00
2022-09-06T05:47:31.245Z,3.70
2022-09-06T05:48:36.816Z,3.50
2022-09-06T05:49:39.227Z,4.20
2022-09-06T05:50:32.213Z,3.90
2022-09-06T05:51:32.535Z,3.60
2022-09-06T05:52:33.713Z,4.30
2022-09-06T05:53:32.864Z,4.80
2022-09-06T05:54:32.522Z,4.60
2022-09-06T05:55:32.238Z,4.20
2022-09-06T05:56:32.413Z,3.90
2022-09-06T05:57:34.096Z,4.30
2022-09-06T05:58:32.614Z,3.50
2022-09-06T05:59:35.568Z,4.30
2022-09-06T06:00:34.816Z,3.80
2022-09-06T06:01:33.782Z,3.70
2022-09-06T06:02:33.158Z,4.20
2022-09-06T06:03:35.205Z,4.00
2022-09-06T06:04:34.275Z,4.40
2022-09-06T06:05:35.193Z,4.40
2022-09-06T06:06:35.440Z,5.20
2022-09-06T06:07:33.693Z,4.30
2022-09-06T06:08:34.734Z,4.30
2022-09-06T06:09:34.643Z,5.10
2022-09-06T06:10:38.486Z,4.80
2022-09-06T06:11:34.956Z,4.70
2022-09-06T06:12:35.113Z,4.00
2022-09-06T06:13:34.423Z,4.40
2022-09-06T06:14:34.592Z,4.20
2022-09-06T06:15:35.601Z,4.40
2022-09-06T06:16:35.803Z,5.00
2022-09-06T06:17:35.012Z,4.30
2022-09-06T06:18:35.103Z,5.20
2022-09-06T06:19:36.340Z,5.10
2022-09-06T06:20:36.607Z,4.50
2022-09-06T06:21:36.321Z,4.00
2022-09-06T06:22:36.469Z,3.80
2022-09-06T06:23:35.790Z,4.50
2022-09-06T06:24:35.871Z,4.30
2022-09-06T06:25:37.132Z,5.00
2022-09-06T06:26:39.080Z,3.90
2022-09-06T06:27:36.290Z,3.80
2022-09-06T06:28:37.401Z,4.70
2022-09-06T06:29:36.751Z,4.10
2022-09-06T06:30:38.360Z,4.20
2022-09-06T06:31:38.662Z,4.10
2022-09-06T06:32:36.908Z,4.10
2022-09-06T06:33:37.021Z,3.80
2022-09-06T06:34:38.760Z,4.10
2022-09-06T06:35:40.185Z,4.10
2022-09-06T06:36:37.424Z,5.10
2022-09-06T06:37:39.212Z,4.30
2022-09-06T06:38:38.528Z,4.80
2022-09-06T06:39:37.845Z,3.80
2022-09-06T06:40:39.540Z,4.70
2022-09-06T06:41:41.800Z,5.20
2022-09-06T06:42:38.114Z,5.10
2022-09-06T06:43:38.250Z,5.40
2022-09-06T06:44:38.322Z,4.20
2022-09-06T06:45:39.451Z,4.80
2022-09-06T06:46:41.352Z,4.10
2022-09-06T06:47:39.453Z,4.50
2022-09-06T06:48:38.894Z,4.60
2022-09-06T06:49:43.108Z,4.30
2022-09-06T06:50:40.792Z,4.30
2022-09-06T06:51:39.220Z,4.30
2022-09-06T06:52:39.811Z,4.10
2022-09-06T06:53:39.522Z,4.50
2022-09-06T06:54:41.292Z,4.20
2022-09-06T06:55:39.840Z,4.50
2022-09-06T06:56:40.870Z,5.40
2022-09-06T06:57:40.790Z,4.90
2022-09-06T06:58:41.153Z,5.60
2022-09-06T06:59:41.326Z,4.50
2022-09-06T07:00:42.445Z,4.50
2022-09-06T07:01:40.622Z,4.90
2022-09-06T07:02:40.717Z,5.20
2022-09-06T07:03:40.747Z,4.70
2022-09-06T07:04:40.928Z,5.00
2022-09-06T07:07:42.307Z,4.70
2022-09-06T07:08:41.427Z,4.70
2022-09-06T07:10:42.690Z,5.00
2022-09-06T07:11:41.808Z,4.20
2022-09-06T07:12:41.999Z,4.60
2022-09-06T07:13:42.137Z,4.20
2022-09-06T07:14:42.226Z,4.50
2022-09-06T07:15:43.996Z,4.70
2022-09-06T07:16:42.652Z,5.40
2022-09-06T07:17:43.467Z,4.90
2022-09-06T07:18:43.633Z,4.50
2022-09-06T07:21:47.796Z,5.10
2022-09-06T07:22:43.266Z,5.10
2022-09-06T07:24:45.370Z,4.60
2022-09-06T07:25:46.603Z,5.20
2022-09-06T07:27:47.762Z,4.40
2022-09-06T07:28:44.088Z,4.50
2022-09-06T07:29:47.813Z,4.70
2022-09-06T07:30:45.046Z,5.00
2022-09-06T07:32:45.626Z,4.90
2022-09-06T07:33:46.616Z,5.20
2022-09-06T07:34:44.817Z,5.30
2022-09-06T07:36:12.634Z,6.30
2022-09-06T07:37:17.514Z,5.30
2022-09-06T07:39:04.666Z,4.40
2022-09-06T07:40:05.657Z,4.20
2022-09-06T07:41:04.087Z,6.10
2022-09-06T07:42:04.107Z,4.50
2022-09-06T07:43:04.227Z,4.70
2022-09-06T07:44:04.526Z,4.60
2022-09-06T07:45:07.236Z,4.70
2022-09-06T07:46:04.754Z,4.90
2022-09-06T07:48:07.142Z,4.30
2022-09-06T07:49:05.175Z,4.90
2022-09-06T07:51:06.354Z,4.80
2022-09-06T07:55:07.299Z,4.50
2022-09-06T07:56:10.878Z,5.40
2022-09-06T07:57:10.088Z,4.90
2022-09-06T07:58:08.730Z,4.60
2022-09-06T07:59:07.184Z,4.80
2022-09-06T08:00:14.077Z,4.70
2022-09-06T08:01:37.221Z,4.50
2022-09-06T08:02:14.241Z,5.90
2022-09-06T08:03:07.613Z,5.80
2022-09-06T08:04:06.932Z,6.10
2022-09-06T08:09:08.403Z,5.60
2022-09-06T08:10:07.600Z,5.10
2022-09-06T08:11:07.704Z,5.40
2022-09-06T08:12:11.463Z,5.30
2022-09-06T08:13:08.653Z,5.40
2022-09-06T08:14:08.093Z,5.60
2022-09-06T08:15:10.916Z,5.60
2022-09-06T08:16:08.398Z,5.90
2022-09-06T08:17:09.603Z,5.40
2022-09-06T08:18:08.594Z,5.00
2022-09-06T08:19:08.660Z,5.30
2022-09-06T08:20:08.870Z,5.70
2022-09-06T08:21:12.444Z,5.20
2022-09-06T08:22:08.990Z,5.40
2022-09-06T08:23:10.821Z,4.90
2022-09-06T08:24:10.162Z,6.50
2022-09-06T08:25:10.097Z,5.20
2022-09-06T08:26:09.533Z,4.80
2022-09-06T08:27:11.263Z,6.30
2022-09-06T08:28:09.761Z,5.30
2022-09-06T08:29:09.871Z,5.60
2022-09-06T08:30:11.696Z,5.30
2022-09-06T08:31:11.106Z,6.20
2022-09-06T08:32:11.387Z,5.30
2022-09-06T08:33:12.113Z,5.30
2022-09-06T08:34:11.472Z,5.40
2022-09-06T08:35:10.611Z,5.70
2022-09-06T08:36:11.561Z,6.80
2022-09-06T08:37:12.582Z,5.20
2022-09-06T08:38:12.061Z,5.20
2022-09-06T08:39:12.349Z,5.10
2022-09-06T08:40:11.384Z,5.60
2022-09-06T08:41:11.560Z,5.30
2022-09-06T08:42:13.250Z,6.10
2022-09-06T08:43:12.431Z,5.70
2022-09-06T08:45:13.030Z,5.20
2022-09-06T08:46:13.092Z,5.70
2022-09-06T08:47:15.131Z,5.30
2022-09-06T08:48:13.251Z,5.60
2022-09-06T08:49:15.921Z,6.50
2022-09-06T08:50:16.509Z,6.00
2022-09-06T08:51:12.649Z,6.20
2022-09-06T08:52:14.649Z,6.20
2022-09-06T08:53:18.259Z,5.40
2022-09-06T08:54:13.589Z,5.00
2022-09-06T08:55:13.199Z,5.60
2022-09-06T08:56:13.999Z,4.70
2022-09-06T08:57:14.159Z,6.30
2022-09-06T08:58:15.348Z,6.00
2022-09-06T08:59:14.488Z,5.50
2022-09-06T09:00:13.832Z,5.70
2022-09-06T09:01:15.195Z,5.40
2022-09-06T09:02:14.198Z,4.50
2022-09-06T09:03:17.329Z,5.30
2022-09-06T09:04:15.280Z,4.60
2022-09-06T09:05:14.544Z,5.00
2022-09-06T09:06:18.407Z,4.60
2022-09-06T09:07:14.834Z,5.60
2022-09-06T09:08:16.676Z,5.50
2022-09-06T09:09:15.128Z,5.30
2022-09-06T09:10:16.118Z,6.20
2022-09-06T09:11:15.278Z,5.10
2022-09-06T09:12:15.568Z,5.50
2022-09-06T09:13:17.311Z,5.80
2022-09-06T09:14:19.189Z,5.20
2022-09-06T09:15:15.749Z,5.40
2022-09-06T09:16:17.614Z,5.00
2022-09-06T09:17:16.902Z,5.40
2022-09-06T09:18:16.107Z,5.80
2022-09-06T09:19:17.429Z,4.90
2022-09-06T09:20:17.068Z,6.40
2022-09-06T09:21:18.358Z,6.50
2022-09-06T09:22:25.442Z,6.20
2022-09-06T09:23:20.126Z,4.70
2022-09-06T09:24:30.621Z,4.70
2022-09-06T09:25:21.986Z,6.30
2022-09-06T09:26:20.520Z,5.30
2022-09-06T09:27:17.806Z,5.50
2022-09-06T09:28:20.176Z,5.00
2022-09-06T09:29:30.288Z,6.10
2022-09-06T09:31:19.741Z,5.10
2022-09-06T09:32:17.939Z,5.50
2022-09-06T09:33:18.096Z,4.90
2022-09-06T09:34:19.118Z,4.50
2022-09-06T09:35:22.867Z,5.00
2022-09-06T09:36:19.612Z,5.30
2022-09-06T09:38:25.131Z,5.80
2022-09-06T09:39:19.662Z,5.20
2022-09-06T09:40:29.338Z,5.30
2022-09-06T09:41:19.273Z,5.80
2022-09-06T09:42:19.337Z,5.30
2022-09-06T09:43:22.643Z,8.00
2022-09-06T09:44:22.083Z,7.60
2022-09-06T09:45:23.675Z,6.00
2022-09-06T09:46:21.684Z,8.10
2022-09-06T09:47:32.346Z,4.80
2022-09-06T09:48:21.904Z,7.00
2022-09-06T09:49:25.494Z,7.70
2022-09-06T09:50:20.267Z,7.90
2022-09-06T09:51:26.313Z,7.50
2022-09-06T09:52:22.333Z,6.30
2022-09-06T09:53:22.329Z,6.00
2022-09-06T09:54:20.754Z,4.90
2022-09-06T09:55:22.798Z,5.50
2022-09-06T09:56:21.175Z,6.90
2022-09-06T09:57:22.216Z,5.60
2022-09-06T09:58:25.243Z,5.30
2022-09-06T09:59:24.098Z,4.50
2022-09-06T10:00:58.233Z,7.10
2022-09-06T10:12:32.697Z,6.60
2022-09-06T10:13:30.371Z,5.90
2022-09-06T10:14:32.461Z,5.10
2022-09-06T10:15:30.587Z,6.00
2022-09-06T10:16:32.733Z,5.50
2022-09-06T10:17:33.935Z,6.00
2022-09-06T10:18:31.727Z,5.50
2022-09-06T10:19:32.850Z,6.40
2022-09-06T10:20:31.234Z,6.80
2022-09-06T10:21:31.368Z,7.40
2022-09-06T10:22:31.484Z,6.70
2022-09-06T10:24:35.224Z,5.20
2022-09-06T10:25:33.579Z,6.30
2022-09-06T10:26:31.985Z,5.50
2022-09-06T10:27:33.936Z,4.60
2022-09-06T10:28:33.879Z,6.10
2022-09-06T10:29:33.225Z,4.70
2022-09-06T10:30:33.389Z,5.30
2022-09-06T10:31:33.595Z,5.10
2022-09-06T10:32:33.924Z,4.60
2022-09-06T10:33:34.942Z,5.10
2022-09-06T10:34:33.052Z,4.60
2022-09-06T10:35:33.954Z,5.80
2022-09-06T10:36:33.324Z,5.00
2022-09-06T10:37:33.422Z,6.00
2022-09-06T10:38:36.690Z,4.80
2022-09-06T10:39:34.608Z,4.90
2022-09-06T10:40:34.848Z,6.10
2022-09-06T10:41:33.963Z,6.20
2022-09-06T10:42:35.094Z,5.30
2022-09-06T10:43:36.001Z,5.80
2022-09-06T10:44:34.406Z,5.10
2022-09-06T10:45:34.591Z,4.80
2022-09-06T10:46:34.670Z,4.20
2022-09-06T10:47:35.771Z,4.10
2022-09-06T10:48:36.642Z,7.50
2022-09-06T10:49:37.007Z,4.90
2022-09-06T10:50:35.263Z,4.70
2022-09-06T10:51:35.393Z,5.20
2022-09-06T10:52:35.502Z,5.70
2022-09-06T10:53:37.318Z,4.40
2022-09-06T10:54:37.602Z,4.90
2022-09-06T10:55:35.918Z,4.60
2022-09-06T10:56:36.074Z,4.80
2022-09-06T10:59:39.274Z,5.60
2022-09-06T11:00:38.251Z,4.10
2022-09-06T11:01:37.892Z,4.90
2022-09-06T11:02:37.261Z,4.80
2022-09-06T11:03:56.698Z,5.20
2022-09-06T11:05:38.649Z,4.70
2022-09-06T11:06:37.462Z,5.50
2022-09-06T11:07:39.477Z,4.30
2022-09-06T11:08:46.350Z,4.60
2022-09-06T11:09:40.061Z,5.00
2022-09-06T11:10:38.014Z,4.30
2022-09-06T11:11:38.203Z,4.80
2022-09-06T11:12:39.199Z,4.50
2022-09-06T11:14:13.704Z,4.30
2022-09-06T11:14:52.549Z,5.10
2022-09-06T11:15:39.367Z,5.40
2022-09-06T11:16:42.169Z,5.60
2022-09-06T11:17:40.469Z,5.50
2022-09-06T11:18:40.032Z,5.70
2022-09-06T11:19:45.049Z,4.10
2022-09-06T11:20:45.570Z,4.30
2022-09-06T11:21:41.139Z,5.50
2022-09-06T11:22:45.196Z,3.70
2022-09-06T11:25:08.355Z,4.10
2022-09-06T11:26:04.795Z,4.20
2022-09-06T11:27:02.844Z,4.90
2022-09-06T11:28:08.763Z,5.30
2022-09-06T11:29:03.248Z,5.00
2022-09-06T11:30:02.036Z,4.50
2022-09-06T11:31:04.805Z,5.30
2022-09-06T11:32:18.317Z,5.00
2022-09-06T11:33:04.714Z,4.60
2022-09-06T11:34:05.083Z,4.00
2022-09-06T11:35:04.614Z,4.30
2022-09-06T11:36:09.380Z,4.30
2022-09-06T11:37:06.710Z,5.40
2022-09-06T11:38:13.537Z,4.50
2022-09-06T11:39:06.403Z,3.80
2022-09-06T11:40:28.231Z,4.20
2022-09-06T11:41:06.349Z,5.30
2022-09-06T11:43:27.977Z,3.90
2022-09-06T11:44:24.760Z,4.40
2022-09-06T11:45:24.659Z,5.20
2022-09-06T11:46:25.612Z,4.30
2022-09-06T11:47:27.701Z,4.20
2022-09-06T11:48:25.096Z,4.20
2022-09-06T11:49:26.859Z,3.80
2022-09-06T11:50:30.103Z,4.90
2022-09-06T11:51:29.187Z,3.70
2022-09-06T11:52:28.647Z,4.50
2022-09-06T11:53:30.086Z,4.80
2022-09-06T11:54:27.748Z,4.00
2022-09-06T11:55:25.848Z,4.40
2022-09-06T11:56:27.956Z,4.00
2022-09-06T11:57:35.262Z,3.50
2022-09-06T11:58:26.857Z,4.50
2022-09-06T11:59:26.637Z,4.10
2022-09-06T12:00:26.490Z,4.30
2022-09-06T12:01:27.852Z,5.00
2022-09-06T12:02:28.199Z,3.60
2022-09-06T12:04:09.515Z,4.50
2022-09-06T12:04:29.420Z,4.40
2022-09-06T12:05:29.721Z,4.00
2022-09-06T12:06:27.361Z,5.20
2022-09-06T12:07:29.314Z,3.30
2022-09-06T12:08:31.710Z,3.70
2022-09-06T12:09:28.195Z,4.40
2022-09-06T12:10:33.094Z,3.30
2022-09-06T12:11:30.456Z,3.10
2022-09-06T12:12:33.720Z,4.20
2022-09-06T12:13:28.337Z,4.00
2022-09-06T12:14:29.612Z,4.40
2022-09-06T12:15:30.021Z,3.60
2022-09-06T12:16:31.307Z,4.40
2022-09-06T12:17:33.912Z,3.00
2022-09-06T12:18:29.190Z,4.60
2022-09-06T12:19:52.437Z,4.00
2022-09-06T12:20:29.261Z,4.20
2022-09-06T12:21:29.249Z,3.70
2022-09-06T12:22:30.463Z,4.30
2022-09-06T12:23:32.131Z,3.50
2022-09-06T12:24:31.443Z,4.80
2022-09-06T12:25:31.038Z,3.60
2022-09-06T12:26:32.941Z,3.80
2022-09-06T12:27:29.985Z,3.70
2022-09-06T12:28:30.105Z,3.40
2022-09-06T12:29:30.195Z,3.40
2022-09-06T12:30:31.797Z,3.30
2022-09-06T12:31:32.164Z,2.80
2022-09-06T12:32:36.719Z,2.90
2022-09-06T12:33:32.703Z,2.90
2022-09-06T12:34:30.887Z,3.80
2022-09-06T12:36:32.189Z,2.60
2022-09-06T12:37:32.448Z,4.50
2022-09-06T12:38:31.355Z,8.00
2022-09-06T12:39:32.181Z,27.30
2022-09-06T12:40:32.624Z,28.80
2022-09-06T12:41:31.784Z,49.70
2022-09-06T12:42:31.912Z,32.20
2022-09-06T12:43:32.137Z,57.80
2022-09-06T12:44:32.236Z,75.80
2022-09-06T12:45:34.074Z,71.40
2022-09-06T12:46:33.451Z,76.60
2022-09-06T12:47:32.700Z,73.60
2022-09-06T12:48:32.835Z,84.90
2022-09-06T12:49:33.866Z,75.90
2022-09-06T12:50:34.004Z,62.50
2022-09-06T12:51:33.194Z,83.80
2022-09-06T12:52:35.552Z,81.20
2022-09-06T12:53:33.396Z,58.30
2022-09-06T12:54:34.506Z,56.40
2022-09-06T12:55:34.674Z,40.30
2022-09-06T12:56:33.826Z,40.30
2022-09-06T12:57:35.082Z,31.20
2022-09-06T12:58:34.035Z,27.20
2022-09-06T12:59:34.214Z,25.50
2022-09-06T13:00:34.324Z,19.70
2022-09-06T13:01:36.668Z,16.10
2022-09-06T13:02:34.844Z,10.80
2022-09-06T13:03:34.691Z,9.60
2022-09-06T13:04:35.936Z,10.70
2022-09-06T13:05:34.917Z,8.30
2022-09-06T13:06:35.045Z,5.40
2022-09-06T13:07:36.868Z,3.80
2022-09-06T13:08:35.359Z,4.20
2022-09-06T13:09:35.480Z,4.40
2022-09-06T13:10:35.568Z,4.10
2022-09-06T13:11:35.659Z,3.70
2022-09-06T13:12:39.375Z,3.60
2022-09-06T13:13:35.893Z,4.00
2022-09-06T13:14:37.194Z,3.30
2022-09-06T13:15:36.183Z,4.00
2022-09-06T13:16:36.242Z,4.90
2022-09-06T13:17:38.034Z,2.50
2022-09-06T13:18:37.483Z,3.60
2022-09-06T13:19:38.354Z,3.70
2022-09-06T13:20:36.802Z,3.60
2022-09-06T13:21:36.973Z,4.20
2022-09-06T13:22:38.798Z,3.00
2022-09-06T13:23:39.027Z,4.60
2022-09-06T13:24:40.663Z,3.80
2022-09-06T13:25:37.642Z,3.90
2022-09-06T13:26:40.108Z,3.80
2022-09-06T13:27:41.335Z,3.80
2022-09-06T13:28:37.952Z,4.10
2022-09-06T13:29:37.992Z,3.60
2022-09-06T13:30:38.173Z,2.80
2022-09-06T13:31:39.277Z,3.00
2022-09-06T13:32:40.035Z,3.50
2022-09-06T13:33:38.472Z,3.80
2022-09-06T13:34:39.763Z,3.70
2022-09-06T13:35:38.721Z,3.80
2022-09-06T13:36:40.509Z,4.40
2022-09-06T13:37:40.264Z,3.60
2022-09-06T13:38:41.186Z,2.40
2022-09-06T13:39:40.380Z,3.40
2022-09-06T13:40:59.823Z,4.30
2022-09-06T13:41:40.805Z,3.60
2022-09-06T13:42:41.894Z,3.90
2022-09-06T13:43:39.885Z,2.90
2022-09-06T13:44:41.700Z,4.10
2022-09-06T13:45:45.964Z,3.70
2022-09-06T13:46:43.826Z,3.20
2022-09-06T13:47:41.102Z,4.00
2022-09-06T13:48:45.453Z,3.80
2022-09-06T13:49:41.454Z,3.90
2022-09-06T13:50:41.589Z,4.60
2022-09-06T13:51:42.685Z,2.90
2022-09-06T13:52:44.620Z,4.90
2022-09-06T13:53:40.971Z,4.20
2022-09-06T13:54:41.966Z,4.60
2022-09-06T13:55:43.150Z,3.80
2022-09-06T13:56:42.284Z,3.20
2022-09-06T13:57:41.652Z,4.50
2022-09-06T13:58:43.382Z,4.00
2022-09-06T13:59:42.511Z,4.60
2022-09-06T14:00:42.395Z,5.40
2022-09-06T14:01:42.866Z,3.90
2022-09-06T14:02:43.025Z,4.10
2022-09-06T14:03:44.174Z,4.90
2022-09-06T14:04:43.311Z,3.30
2022-09-06T14:05:43.492Z,3.20
2022-09-06T14:06:44.270Z,3.80
2022-09-06T14:07:43.533Z,4.40
2022-09-06T14:09:05.976Z,5.30
2022-09-06T14:09:44.879Z,4.90
2022-09-06T14:10:44.789Z,4.60
2022-09-06T14:11:48.292Z,5.40
2022-09-06T14:12:44.331Z,4.10
2022-09-06T14:13:45.119Z,4.40
2022-09-06T14:14:45.362Z,4.30
2022-09-06T14:15:44.610Z,3.70
2022-09-06T14:16:43.859Z,4.10
2022-09-06T14:17:43.989Z,5.10
2022-09-06T14:18:44.110Z,4.20
2022-09-06T14:19:45.359Z,4.50
2022-09-06T14:20:44.361Z,3.70
2022-09-06T14:21:44.479Z,3.60
2022-09-06T14:22:45.700Z,4.50
2022-09-06T14:23:44.721Z,4.20
2022-09-06T14:24:44.867Z,3.80
2022-09-06T14:25:45.022Z,4.70
2022-09-06T14:26:45.109Z,3.20
2022-09-06T14:27:46.338Z,3.20
2022-09-06T14:28:45.369Z,3.10
2022-09-06T14:29:45.483Z,4.60
2022-09-06T14:30:45.636Z,3.90
2022-09-06T14:31:45.748Z,4.10
2022-09-06T14:32:47.467Z,4.00
2022-09-06T14:33:46.064Z,3.90
2022-09-06T14:34:47.793Z,5.70
2022-09-06T14:35:46.319Z,5.70
2022-09-06T14:36:46.450Z,5.70
2022-09-06T14:37:46.586Z,4.90
2022-09-06T14:38:48.309Z,3.20
2022-09-06T14:39:48.604Z,4.20
2022-09-06T14:40:46.959Z,4.30
2022-09-06T14:41:47.097Z,5.40
2022-09-06T14:42:50.376Z,6.60
2022-09-06T14:43:47.381Z,6.60
2022-09-06T14:44:49.080Z,4.40
2022-09-06T14:45:47.619Z,4.10
2022-09-06T14:46:49.325Z,3.80
2022-09-06T14:47:49.040Z,4.90
2022-09-06T14:48:49.267Z,3.80
2022-09-06T14:49:48.141Z,5.80
2022-09-06T14:50:48.260Z,4.80
2022-09-06T14:51:48.390Z,4.40
2022-09-06T14:52:48.510Z,5.00
2022-09-06T14:53:50.239Z,5.60
2022-09-06T14:54:49.970Z,3.70
2022-09-06T14:55:48.919Z,3.60
2022-09-06T14:56:49.052Z,4.80
2022-09-06T14:57:49.169Z,5.30
2022-09-06T14:58:49.298Z,6.70
2022-09-06T14:59:49.450Z,3.90
2022-09-06T15:00:50.668Z,5.20
2022-09-06T15:01:49.726Z,5.50
2022-09-06T15:02:50.582Z,4.20
2022-09-06T15:03:49.901Z,5.00
2022-09-06T15:04:51.628Z,6.10
2022-09-06T15:05:50.213Z,6.40
2022-09-06T15:06:50.342Z,5.00
2022-09-06T15:07:50.477Z,4.10
2022-09-06T15:08:54.613Z,3.70
2022-09-06T15:09:51.722Z,4.90
2022-09-06T15:10:50.841Z,5.80
2022-09-06T15:11:52.549Z,4.50
2022-09-06T15:12:51.128Z,5.40
2022-09-06T15:13:51.260Z,4.90
2022-09-06T15:14:53.953Z,5.10
2022-09-06T15:15:51.597Z,6.10
2022-09-06T15:16:56.118Z,4.50
2022-09-06T15:17:51.851Z,4.80
2022-09-06T15:18:54.386Z,5.20
2022-09-06T15:19:55.239Z,5.40
2022-09-06T15:20:53.167Z,5.10
2022-09-06T15:21:53.069Z,4.10
2022-09-06T15:23:03.880Z,7.30
2022-09-06T15:23:55.207Z,5.40
2022-09-06T15:24:54.427Z,5.20
2022-09-06T15:25:52.847Z,3.70
2022-09-06T15:26:52.988Z,4.70
2022-09-06T15:27:53.107Z,7.10
2022-09-06T15:28:53.237Z,6.20
2022-09-06T15:29:54.973Z,5.80
2022-09-06T15:30:53.600Z,5.60
2022-09-06T15:31:53.666Z,5.80
2022-09-06T15:32:55.420Z,6.60
2022-09-06T15:33:53.919Z,6.10
2022-09-06T15:34:55.636Z,5.50
2022-09-06T15:35:55.189Z,8.10
2022-09-06T15:36:54.297Z,5.40
2022-09-06T15:37:54.419Z,5.20
2022-09-06T15:38:55.655Z,5.10
2022-09-06T15:39:56.005Z,6.40
2022-09-06T15:40:54.797Z,5.30
2022-09-06T15:41:54.935Z,5.10
2022-09-06T15:42:55.048Z,6.10
2022-09-06T15:43:58.131Z,4.90
2022-09-06T15:44:55.315Z,5.30
2022-09-06T15:45:57.049Z,5.80
2022-09-06T15:46:55.576Z,5.70
2022-09-06T15:47:57.367Z,5.00
2022-09-06T15:48:55.835Z,5.20
2022-09-06T15:49:56.057Z,5.40
2022-09-06T15:50:57.695Z,6.00
2022-09-06T15:51:56.217Z,4.40
2022-09-06T15:52:56.336Z,5.30
2022-09-06T15:53:56.493Z,7.10
2022-09-06T15:54:57.586Z,5.00
2022-09-06T15:55:56.746Z,5.20
2022-09-06T15:56:58.466Z,5.70
2022-09-06T15:57:56.999Z,5.80
2022-09-06T15:58:57.137Z,5.30
2022-09-06T15:59:58.895Z,4.70
2022-09-06T16:11:52.851Z,6.00
2022-09-06T16:12:53.071Z,5.80
2022-09-06T16:13:52.813Z,5.30
2022-09-06T16:14:52.321Z,4.60
2022-09-06T16:15:52.431Z,4.20
2022-09-06T16:16:54.184Z,4.50
2022-09-06T16:17:51.661Z,6.90
2022-09-06T16:18:52.714Z,5.20
2022-09-06T16:19:52.879Z,5.70
2022-09-06T16:20:53.040Z,5.70
2022-09-06T16:21:52.169Z,4.90
2022-09-06T16:22:52.270Z,6.00
2022-09-06T16:23:53.238Z,6.40
2022-09-06T16:24:52.542Z,4.50
2022-09-06T16:25:55.681Z,4.50
2022-09-06T16:26:52.763Z,6.00
2022-09-06T16:27:52.933Z,7.00
2022-09-06T16:28:53.013Z,5.80
2022-09-06T16:29:56.217Z,5.70
2022-09-06T16:30:53.333Z,6.50
2022-09-06T16:31:56.473Z,5.90
2022-09-06T16:32:53.559Z,4.90
2022-09-06T16:33:56.747Z,7.70
2022-09-06T16:34:56.991Z,4.50
2022-09-06T16:35:54.669Z,6.80
2022-09-06T16:36:57.133Z,7.40
2022-09-06T16:37:54.989Z,6.70
2022-09-06T16:38:55.156Z,5.70
2022-09-06T16:39:57.583Z,7.40
2022-09-06T16:40:55.470Z,6.10
2022-09-06T16:41:57.710Z,8.70
2022-09-06T16:42:55.547Z,9.00
2022-09-06T16:43:55.699Z,5.40
2022-09-06T16:44:55.051Z,6.50
2022-09-06T16:45:55.210Z,6.40
2022-09-06T16:46:56.929Z,6.70
2022-09-06T16:47:55.438Z,6.60
2022-09-06T16:48:55.560Z,5.40
2022-09-06T16:49:55.691Z,5.70
2022-09-06T16:50:55.831Z,6.40
2022-09-06T16:51:59.486Z,8.70
2022-09-06T16:52:56.106Z,6.70
2022-09-06T16:53:56.264Z,6.70
2022-09-06T16:54:57.499Z,6.70
2022-09-06T16:55:56.498Z,6.30
2022-09-06T16:56:56.628Z,7.00
2022-09-06T16:57:56.758Z,6.60
2022-09-06T16:58:56.880Z,5.80
2022-09-06T16:59:57.008Z,7.00
2022-09-06T17:00:58.762Z,6.00
2022-09-06T17:01:59.031Z,4.90
2022-09-06T17:02:57.422Z,6.10
2022-09-06T17:03:57.517Z,6.00
2022-09-06T17:04:57.650Z,6.00
2022-09-06T17:05:59.367Z,7.80
2022-09-06T17:06:59.588Z,6.60
2022-09-06T17:07:57.997Z,5.50
2022-09-06T17:08:58.121Z,6.80
2022-09-06T17:09:59.847Z,7.30
2022-09-06T17:10:58.357Z,6.30
2022-09-06T17:12:00.084Z,8.10
2022-09-06T17:13:00.296Z,5.60
2022-09-06T17:13:58.689Z,6.50
2022-09-06T17:14:58.849Z,5.40
2022-09-06T17:15:58.926Z,7.40
2022-09-06T17:17:00.787Z,7.70
2022-09-06T17:17:59.339Z,5.20
2022-09-06T17:19:02.327Z,8.30
2022-09-06T17:20:00.428Z,5.50
2022-09-06T17:20:59.596Z,7.60
2022-09-06T17:22:01.320Z,7.10
2022-09-06T17:22:59.845Z,6.40
2022-09-06T17:23:59.977Z,5.90
2022-09-06T17:25:00.119Z,6.90
2022-09-06T17:26:00.237Z,7.00
2022-09-06T17:27:00.972Z,7.70
2022-09-06T17:28:01.449Z,5.90
2022-09-06T17:29:00.638Z,6.40
2022-09-06T17:30:00.764Z,5.90
2022-09-06T17:31:02.655Z,7.20
2022-09-06T17:32:02.695Z,6.80
2022-09-06T17:33:01.165Z,6.80
2022-09-06T17:34:02.875Z,8.20
2022-09-06T17:35:01.452Z,7.30
2022-09-06T17:36:01.565Z,7.10
2022-09-06T17:37:01.723Z,5.80
2022-09-06T17:38:01.844Z,5.80
2022-09-06T17:39:03.566Z,5.30
2022-09-06T17:40:02.112Z,5.80
2022-09-06T17:41:02.211Z,8.10
2022-09-06T17:42:03.934Z,5.90
2022-09-06T17:43:02.445Z,6.90
2022-09-06T17:44:03.666Z,6.60
2022-09-06T17:45:03.714Z,7.70
2022-09-06T17:46:03.890Z,7.80
2022-09-06T17:47:13.420Z,7.60
2022-09-06T17:48:04.103Z,6.40
2022-09-06T17:49:04.224Z,5.90
2022-09-06T17:50:04.359Z,6.50
2022-09-06T17:51:04.574Z,8.10
2022-09-06T17:52:03.573Z,8.30
2022-09-06T17:53:03.713Z,6.30
2022-09-06T17:54:03.833Z,7.20
2022-09-06T17:55:05.054Z,6.00
2022-09-06T17:56:04.124Z,5.90
2022-09-06T17:57:05.836Z,7.00
2022-09-06T17:58:04.396Z,5.70
2022-09-06T17:59:04.525Z,7.00
2022-09-06T18:00:06.240Z,5.40
2022-09-06T18:01:05.760Z,7.30
2022-09-06T18:02:06.473Z,6.30
2022-09-06T18:03:05.973Z,7.50
2022-09-06T18:04:05.189Z,7.30
2022-09-06T18:05:07.405Z,7.10
2022-09-06T18:06:06.583Z,6.20
2022-09-06T18:07:07.314Z,5.80
2022-09-06T18:08:06.611Z,6.40